CDT,Max TemperatureF,Mean TemperatureF,Min TemperatureF,Max Dew PointF,MeanDew PointF,Min DewpointF,Max Humidity, Mean Humidity, Min Humidity, Max Sea Level PressureIn, Mean Sea Level PressureIn, Min Sea Level PressureIn, Max VisibilityMiles, Mean VisibilityMiles, Min VisibilityMiles, Max Wind SpeedMPH, Mean Wind SpeedMPH, Max Gust SpeedMPH,PrecipitationIn, CloudCover, Events, WindDirDegrees
2013-5-1,74,70,66,61,60,56,76,67,57,30.09,30.04,29.96,10,10,8,16,9,22,T,6,Rain,90
2013-5-2,73,69,65,61,59,54,81,71,61,30.10,30.05,30.02,10,10,10,15,9,24,0.00,8,,81
2013-5-3,74,60,46,61,51,43,93,75,57,30.02,29.95,29.84,10,5,1,22,8,28,1.53,7,Rain,325
2013-5-4,66,55,43,48,41,36,92,63,34,30.01,29.96,29.91,10,8,2,14,6,20,0.16,4,Rain,328
2013-5-5,58,52,46,47,45,41,93,77,61,29.94,29.89,29.84,10,10,5,17,6,25,0.03,6,Rain,296
2013-5-6,63,55,46,56,52,44,100,84,67,29.95,29.91,29.88,10,7,0,16,5,21,0.05,6,Fog-Rain,244
2013-5-7,75,62,48,57,51,46,100,73,46,30.05,29.97,29.92,10,5,0,10,3,14,0.00,4,Fog,320
2013-5-8,81,66,51,61,55,49,93,68,42,30.11,30.06,30.02,10,8,2,9,2,12,0.00,0,,282
2013-5-9,84,70,55,63,58,54,93,67,40,30.13,30.07,30.03,10,8,2,13,4,17,0.00,0,,195
2013-5-10,77,70,62,63,61,57,93,77,60,30.08,30.01,29.94,10,8,3,18,6,25,0.35,3,Rain-Thunderstorm,194
2013-5-11,79,69,58,66,63,58,100,79,58,30.04,29.98,29.94,10,6,0,17,2,28,0.02,5,Fog-Rain,245
2013-5-12,74,62,49,56,47,37,93,61,29,30.18,30.11,30.03,10,9,2,16,5,23,0.00,0,,351
2013-5-13,76,60,44,52,44,38,89,59,29,30.30,30.23,30.17,10,10,10,12,2,16,0.00,0,,332
2013-5-14,85,68,51,58,54,49,93,64,34,30.25,30.18,30.11,10,10,10,14,4,17,0.00,0,,204
2013-5-15,85,71,57,65,58,54,93,64,34,30.21,30.12,30.03,10,10,6,13,3,15,0.00,0,,195
2013-5-16,82,73,63,64,61,57,93,69,45,30.08,30.02,29.96,10,10,8,14,4,20,0.00,1,,179
2013-5-17,80,74,68,70,67,64,90,79,67,30.04,29.99,29.94,10,8,2,16,6,21,0.20,5,Rain-Thunderstorm,181
2013-5-18,85,78,71,72,70,69,93,77,61,30.06,30.01,29.97,8,5,1,16,5,18,0.15,6,Rain,200
2013-5-19,85,78,71,71,70,67,93,76,58,30.05,30.01,29.98,10,5,2,12,5,16,0.00,3,,184
2013-5-20,89,80,70,70,69,68,93,73,53,30.07,30.01,29.94,10,8,4,12,6,17,0.00,3,,173
2013-5-21,89,79,68,70,68,65,97,72,46,30.01,29.95,29.84,10,8,3,15,5,20,0.00,2,,174
2013-5-22,82,75,67,68,66,64,93,76,58,29.96,29.92,29.88,10,10,10,13,5,18,T,2,,225
2013-5-23,88,76,64,68,64,60,100,71,42,30.05,30.00,29.94,10,5,0,15,3,18,0.00,1,Fog,287
2013-5-24,82,70,57,61,53,45,78,53,28,30.24,30.17,30.05,10,10,10,18,9,23,0.00,0,,14
2013-5-25,85,69,52,59,50,44,90,59,28,30.31,30.24,30.18,10,10,10,9,2,17,0.00,0,,45
2013-5-26,88,73,57,61,57,53,90,61,32,30.25,30.18,30.12,10,10,10,10,2,15,0.00,0,,212
2013-5-27,88,75,62,65,61,59,93,67,40,30.19,30.12,30.05,10,10,7,15,4,23,0.00,0,,187
2013-5-28,88,75,61,68,63,58,87,64,40,30.14,30.08,30.02,10,10,8,20,6,28,0.00,2,,168
2013-5-29,91,79,67,70,67,64,87,67,47,30.13,30.06,30.02,10,10,5,23,7,28,0.03,3,Rain-Thunderstorm,129
2013-5-30,89,81,73,70,68,66,87,69,50,30.12,30.07,30.00,10,10,10,17,8,22,0.00,4,,128
2013-5-31,89,82,74,70,68,66,79,67,55,30.10,30.04,29.98,10,10,10,18,8,23,0.00,3,,149